Time;durP1;ratioP1;P1;durP2;ratioP2;P2;SDS_P1;SDS_P2;PMS_P1;PMS_P2;Temp;Humidity;BMP_temperature;BMP_pressure;BME280_temperature;BME280_humidity;BME280_pressure;Samples;Min_cycle;Max_cycle;Signal;HPM_P1;HPM_P2
2022/01/18 16:27:16;;;;;;;74.30;26.08;;;;;;;;;;5067728;27;1292218;-75
2022/01/18 16:29:42;;;;;;;84.38;28.98;;;;;;;;;;5088161;27;95248;-75
2022/01/18 16:32:09;;;;;;;88.82;30.75;;;;;;;;;;5088473;27;95307;-77
2022/01/18 16:34:35;;;;;;;83.30;30.42;;;;;;;;;;5087794;27;96882;-76
2022/01/18 16:37:01;;;;;;;80.70;29.70;;;;;;;;;;5085157;27;97398;-76
2022/01/18 16:39:28;;;;;;;84.30;29.30;;;;;;;;;;5088157;27;96146;-75
2022/01/18 16:41:54;;;;;;;85.63;29.83;;;;;;;;;;5087781;27;96841;-75
2022/01/18 16:44:20;;;;;;;85.15;29.23;;;;;;;;;;5088232;27;97205;-76
2022/01/18 16:46:47;;;;;;;69.75;28.20;;;;;;;;;;5090653;27;95375;-76
2022/01/18 16:49:13;;;;;;;92.38;28.92;;;;;;;;;;5088922;27;97342;-77
2022/01/18 16:51:41;;;;;;;87.60;29.67;;;;;;;;;;5088198;27;95315;-76
2022/01/18 16:54:08;;;;;;;73.95;27.85;;;;;;;;;;5089274;27;96860;-76
2022/01/18 16:56:35;;;;;;;78.85;28.08;;;;;;;;;;5088805;27;97537;-75
2022/01/18 16:59:02;;;;;;;85.63;31.15;;;;;;;;;;5070254;27;95398;-77
2022/01/18 17:01:31;;;;;;;86.05;28.90;;;;;;;;;;5076788;27;96632;-76
2022/01/18 17:03:59;;;;;;;80.20;29.10;;;;;;;;;;5088742;27;97332;-76
2022/01/18 17:06:26;;;;;;;88.43;30.67;;;;;;;;;;5088411;27;95353;-78
2022/01/18 17:08:52;;;;;;;86.95;29.20;;;;;;;;;;5091915;27;97057;-78
2022/01/18 17:11:21;;;;;;;72.43;28.40;;;;;;;;;;5088011;27;95453;-77
2022/01/18 17:13:47;;;;;;;74.05;25.67;;;;;;;;;;5088335;27;96974;-76
2022/01/18 17:16:14;;;;;;;85.40;26.25;;;;;;;;;;5083944;27;97585;-77
2022/01/18 17:18:41;;;;;;;71.93;26.00;;;;;;;;;;5068738;27;95306;-77
2022/01/18 17:21:08;;;;;;;74.85;27.70;;;;;;;;;;5069807;27;96685;-78
2022/01/18 17:23:35;;;;;;;68.97;25.45;;;;;;;;;;5085944;27;97486;-78
2022/01/18 17:26:01;;;;;;;82.28;27.00;;;;;;;;;;5088031;27;95277;-78
2022/01/18 17:28:27;;;;;;;79.32;27.38;;;;;;;;;;5086539;27;96623;-78
2022/01/18 17:30:53;;;;;;;84.25;30.42;;;;;;;;;;5091184;27;97465;-77
2022/01/18 17:33:20;;;;;;;80.80;27.55;;;;;;;;;;5087498;27;96683;-77
2022/01/18 17:35:47;;;;;;;75.50;27.98;;;;;;;;;;5088326;27;96514;-77
2022/01/18 17:38:13;;;;;;;92.85;31.20;;;;;;;;;;5075952;27;96309;-79
2022/01/18 17:40:44;;;;;;;96.43;32.20;;;;;;;;;;5074609;27;96738;-76
2022/01/18 17:43:14;;;;;;;77.15;28.83;;;;;;;;;;5073368;27;97393;-77
2022/01/18 17:45:42;;;;;;;78.28;27.65;;;;;;;;;;5074707;27;95281;-78
2022/01/18 17:48:08;;;;;;;84.82;27.77;;;;;;;;;;5074544;27;96865;-78
2022/01/18 17:50:35;;;;;;;77.50;28.00;;;;;;;;;;5061892;27;97490;-78
2022/01/18 17:53:02;;;;;;;84.00;28.27;;;;;;;;;;5074872;27;95348;-77
2022/01/18 17:55:29;;;;;;;89.47;27.95;;;;;;;;;;5072084;27;97356;-76
2022/01/18 17:57:56;;;;;;;86.80;29.60;;;;;;;;;;5055636;27;95141;-76
2022/01/18 18:00:22;;;;;;;82.47;28.17;;;;;;;;;;5068287;27;96761;-77
2022/01/18 18:02:48;;;;;;;81.45;28.13;;;;;;;;;;5067676;27;97513;-77
2022/01/18 18:05:18;;;;;;;80.25;28.13;;;;;;;;;;5064422;27;95192;-77
2022/01/18 18:07:46;;;;;;;85.57;28.70;;;;;;;;;;5069317;27;97013;-76
2022/01/18 18:10:13;;;;;;;83.43;29.77;;;;;;;;;;5069502;27;97349;-78
2022/01/18 18:12:40;;;;;;;82.97;28.63;;;;;;;;;;5065275;27;95334;-77
2022/01/18 18:15:07;;;;;;;79.10;27.95;;;;;;;;;;5067522;27;96307;-78
2022/01/18 18:17:37;;;;;;;80.50;28.42;;;;;;;;;;5061894;27;95370;-76
2022/01/18 18:20:04;;;;;;;89.95;29.52;;;;;;;;;;5065584;27;98975;-77
2022/01/18 18:22:31;;;;;;;84.70;28.98;;;;;;;;;;5062784;27;97528;-77
2022/01/18 18:24:57;;;;;;;88.53;30.52;;;;;;;;;;5057669;27;95582;-77
2022/01/18 18:27:25;;;;;;;89.85;30.55;;;;;;;;;;5053587;27;96773;-79
2022/01/18 18:29:51;;;;;;;83.45;30.27;;;;;;;;;;5069305;27;97361;-78
2022/01/18 18:32:20;;;;;;;93.95;29.15;;;;;;;;;;5070927;27;95703;-79
2022/01/18 18:34:47;;;;;;;86.85;28.50;;;;;;;;;;5069269;27;96755;-78
2022/01/18 18:37:13;;;;;;;94.70;30.33;;;;;;;;;;5075502;27;96209;-78
2022/01/18 18:39:46;;;;;;;102.50;33.35;;;;;;;;;;5067677;27;95966;-77
2022/01/18 18:44:40;;;;;;;83.28;31.42;;;;;;;;;;5065283;27;95311;-77
2022/01/18 18:47:07;;;;;;;102.50;31.10;;;;;;;;;;5055518;27;96871;-77
2022/01/18 18:49:34;;;;;;;101.30;31.40;;;;;;;;;;5067250;27;97951;-77
2022/01/18 18:52:02;;;;;;;101.22;31.58;;;;;;;;;;5069368;27;95400;-76
2022/01/18 18:54:29;;;;;;;115.10;35.35;;;;;;;;;;5066781;27;96810;-78
2022/01/18 18:56:56;;;;;;;110.13;32.83;;;;;;;;;;5075977;27;97285;-77
2022/01/18 19:04:24;;;;;;;;;;;;;;;;;;5073393;27;95181;-78
2022/01/18 19:06:50;;;;;;;111.97;36.63;;;;;;;;;;5072856;27;126401;-77
2022/01/18 19:09:20;;;;;;;115.65;36.33;;;;;;;;;;5056970;27;97292;-76
2022/01/18 19:11:47;;;;;;;102.80;35.65;;;;;;;;;;5068348;27;96220;-77
2022/01/18 19:14:15;;;;;;;114.03;34.53;;;;;;;;;;5061185;27;97192;-77
2022/01/18 19:16:42;;;;;;;100.35;34.42;;;;;;;;;;5066883;27;96310;-76
2022/01/18 19:19:10;;;;;;;112.50;33.05;;;;;;;;;;5065016;27;95228;-76
2022/01/18 19:21:40;;;;;;;108.85;31.48;;;;;;;;;;5058586;27;97617;-76
2022/01/18 19:24:07;;;;;;;104.25;32.17;;;;;;;;;;5066981;27;95215;-77
2022/01/18 19:26:35;;;;;;;117.70;33.08;;;;;;;;;;5066038;27;96817;-76
2022/01/18 19:29:03;;;;;;;113.57;34.67;;;;;;;;;;5058268;27;97304;-76
2022/01/18 19:31:33;;;;;;;129.23;34.13;;;;;;;;;;5070255;27;95385;-75
2022/01/18 19:33:59;;;;;;;134.80;34.45;;;;;;;;;;5056344;27;96899;-75
2022/01/18 19:36:26;;;;;;;152.65;43.35;;;;;;;;;;5055510;27;97798;-77
2022/01/18 19:38:52;;;;;;;156.90;46.08;;;;;;;;;;5066753;27;95421;-79
2022/01/18 19:41:18;;;;;;;162.32;44.67;;;;;;;;;;5060244;27;97138;-78
2022/01/18 19:43:45;;;;;;;203.57;68.53;;;;;;;;;;5066602;27;95170;-78
2022/01/18 19:46:11;;;;;;;163.95;38.42;;;;;;;;;;5067874;27;96682;-76
2022/01/18 19:48:38;;;;;;;147.02;37.25;;;;;;;;;;5065505;27;97248;-78
2022/01/18 19:51:06;;;;;;;134.30;34.28;;;;;;;;;;5072493;27;95182;-77
2022/01/18 19:53:32;;;;;;;151.23;39.58;;;;;;;;;;5069780;27;96703;-75
2022/01/18 19:55:58;;;;;;;164.75;35.70;;;;;;;;;;5069146;27;97215;-77
2022/01/18 19:58:25;;;;;;;164.07;44.78;;;;;;;;;;5073288;27;95340;-78
2022/01/18 20:00:53;;;;;;;171.93;43.05;;;;;;;;;;5073459;27;96917;-78
2022/01/18 20:03:20;;;;;;;150.07;36.30;;;;;;;;;;5074925;27;97240;-78
2022/01/18 20:05:47;;;;;;;159.75;35.78;;;;;;;;;;5071694;27;95615;-78
2022/01/18 20:08:14;;;;;;;169.18;47.67;;;;;;;;;;5072875;27;97591;-77
2022/01/18 20:10:42;;;;;;;144.30;35.58;;;;;;;;;;5072927;27;95426;-76
2022/01/18 20:13:08;;;;;;;164.48;36.78;;;;;;;;;;5072822;27;96736;-78
2022/01/18 20:15:35;;;;;;;166.88;33.78;;;;;;;;;;5063940;27;97425;-77
2022/01/18 20:18:01;;;;;;;151.48;34.20;;;;;;;;;;5072746;27;95445;-78
2022/01/18 20:20:27;;;;;;;151.02;35.28;;;;;;;;;;5068148;27;96874;-78
2022/01/18 20:22:55;;;;;;;156.02;35.17;;;;;;;;;;5066197;27;97335;-77
2022/01/18 20:25:21;;;;;;;147.68;35.30;;;;;;;;;;5074955;27;95285;-77
2022/01/18 20:27:48;;;;;;;158.68;34.60;;;;;;;;;;5070548;27;97410;-78
2022/01/18 20:30:20;;;;;;;135.02;32.90;;;;;;;;;;5071372;27;95429;-77
2022/01/18 20:32:46;;;;;;;147.67;36.17;;;;;;;;;;5071950;27;96588;-77
2022/01/18 20:35:13;;;;;;;134.27;32.33;;;;;;;;;;5072444;27;97200;-76
2022/01/18 20:37:40;;;;;;;158.23;37.08;;;;;;;;;;5072365;27;95386;-77
2022/01/18 20:40:14;;;;;;;148.38;35.42;;;;;;;;;;5070214;27;96846;-76
2022/01/18 20:45:26;;;;;;;142.77;34.40;;;;;;;;;;5072634;27;95127;-76
2022/01/18 20:47:53;;;;;;;152.40;35.85;;;;;;;;;;5067305;27;97544;-75
2022/01/18 20:50:19;;;;;;;178.45;37.80;;;;;;;;;;5065106;27;96573;-77
2022/01/18 20:52:46;;;;;;;165.80;41.22;;;;;;;;;;5062224;27;96863;-76
2022/01/18 20:55:13;;;;;;;158.90;40.10;;;;;;;;;;5065791;27;97191;-77
2022/01/18 20:57:39;;;;;;;156.82;37.63;;;;;;;;;;5065394;27;95380;-76
2022/01/18 21:00:06;;;;;;;148.13;36.80;;;;;;;;;;5066952;27;96675;-77
2022/01/18 21:02:33;;;;;;;158.57;36.83;;;;;;;;;;5062097;27;97552;-75
2022/01/18 21:05:01;;;;;;;149.30;34.75;;;;;;;;;;5067316;27;95237;-76
2022/01/18 21:07:28;;;;;;;142.50;35.22;;;;;;;;;;5073840;27;95150;-75
2022/01/18 21:09:54;;;;;;;150.57;38.65;;;;;;;;;;5052408;27;95285;-76
2022/01/18 21:12:20;;;;;;;153.00;36.42;;;;;;;;;;5052495;27;96164;-75
2022/01/18 21:14:47;;;;;;;160.52;37.75;;;;;;;;;;5070609;27;97321;-76
2022/01/18 21:17:22;;;;;;;156.90;38.00;;;;;;;;;;5075215;27;95257;-76
2022/01/18 21:19:52;;;;;;;164.40;37.65;;;;;;;;;;5075190;27;96800;-75
2022/01/18 21:22:19;;;;;;;164.70;38.92;;;;;;;;;;5074646;27;97466;-75
2022/01/18 21:24:47;;;;;;;165.63;35.85;;;;;;;;;;5075927;27;95176;-74
2022/01/18 21:27:14;;;;;;;160.50;35.28;;;;;;;;;;5074093;27;97297;-75
2022/01/18 21:29:41;;;;;;;164.30;36.40;;;;;;;;;;5077249;27;97327;-75
2022/01/18 21:32:07;;;;;;;154.27;34.40;;;;;;;;;;5075249;27;96809;-75
2022/01/18 21:34:34;;;;;;;169.10;34.92;;;;;;;;;;5075178;27;96578;-76
2022/01/18 21:37:01;;;;;;;170.23;37.42;;;;;;;;;;5075065;27;96427;-76
2022/01/18 21:39:28;;;;;;;163.05;35.22;;;;;;;;;;5074918;27;96991;-75
2022/01/18 21:41:55;;;;;;;178.20;36.63;;;;;;;;;;5074543;27;96108;-76
2022/01/18 21:44:21;;;;;;;190.98;36.42;;;;;;;;;;5074574;27;95277;-76
2022/01/18 21:46:48;;;;;;;172.43;35.97;;;;;;;;;;5075539;27;97232;-77
2022/01/18 21:49:14;;;;;;;193.30;38.88;;;;;;;;;;5073415;27;97313;-77
2022/01/18 21:51:41;;;;;;;198.95;39.08;;;;;;;;;;5078620;27;95532;-76
2022/01/18 21:54:09;;;;;;;189.98;39.45;;;;;;;;;;5075219;27;97319;-76
2022/01/18 21:56:36;;;;;;;156.73;36.75;;;;;;;;;;5074597;27;95316;-77
2022/01/18 21:59:04;;;;;;;183.43;38.10;;;;;;;;;;5075264;27;96847;-76
2022/01/18 22:01:34;;;;;;;175.93;37.75;;;;;;;;;;5074612;27;97438;-76
2022/01/18 22:04:01;;;;;;;175.95;37.10;;;;;;;;;;5074047;27;95504;-75
2022/01/18 22:06:29;;;;;;;180.50;38.03;;;;;;;;;;5075016;27;96871;-75
2022/01/18 22:08:56;;;;;;;175.90;37.00;;;;;;;;;;5074902;27;97294;-77
2022/01/18 22:11:23;;;;;;;193.00;37.90;;;;;;;;;;5074406;27;95316;-75
2022/01/18 22:13:51;;;;;;;165.93;35.15;;;;;;;;;;5077969;27;96752;-76
2022/01/18 22:16:17;;;;;;;191.45;39.65;;;;;;;;;;5074217;27;95314;-75
2022/01/18 22:18:45;;;;;;;189.63;38.70;;;;;;;;;;5074963;27;96838;-76
2022/01/18 22:21:12;;;;;;;183.63;39.28;;;;;;;;;;5074283;27;97428;-76
2022/01/18 22:23:39;;;;;;;192.45;39.28;;;;;;;;;;5074670;27;95084;-76
2022/01/18 22:26:06;;;;;;;188.60;37.63;;;;;;;;;;5074750;27;96778;-75
2022/01/18 22:28:33;;;;;;;178.00;35.33;;;;;;;;;;5073692;27;97690;-75
2022/01/18 22:31:04;;;;;;;180.80;36.77;;;;;;;;;;5071864;27;95695;-76
2022/01/18 22:33:31;;;;;;;178.95;36.72;;;;;;;;;;5073881;27;95734;-77
2022/01/18 22:35:57;;;;;;;178.93;37.45;;;;;;;;;;5077803;27;97340;-77
2022/01/18 22:38:24;;;;;;;195.52;36.00;;;;;;;;;;5074056;27;96753;-75
2022/01/18 22:40:59;;;;;;;180.55;37.15;;;;;;;;;;5074591;27;97298;-77
2022/01/18 22:43:26;;;;;;;171.60;36.35;;;;;;;;;;5074409;27;95173;-76
2022/01/18 22:45:52;;;;;;;177.48;37.28;;;;;;;;;;5072960;27;97174;-76
2022/01/18 22:48:19;;;;;;;199.85;39.40;;;;;;;;;;5073911;27;97861;-78
2022/01/18 22:50:45;;;;;;;181.07;37.95;;;;;;;;;;5073415;27;95368;-76
2022/01/18 22:53:12;;;;;;;214.73;41.15;;;;;;;;;;5073869;27;96341;-76
2022/01/18 22:55:38;;;;;;;218.65;39.28;;;;;;;;;;5077297;27;96443;-76
2022/01/18 22:58:04;;;;;;;185.18;38.30;;;;;;;;;;5073058;27;97048;-78
2022/01/18 23:00:30;;;;;;;184.10;37.38;;;;;;;;;;5072423;27;96352;-76
2022/01/18 23:02:57;;;;;;;176.68;36.13;;;;;;;;;;5073905;27;95371;-77
2022/01/18 23:05:23;;;;;;;153.77;35.00;;;;;;;;;;5073998;27;96445;-76
2022/01/18 23:07:50;;;;;;;158.60;35.30;;;;;;;;;;5073329;27;97774;-76
2022/01/18 23:10:17;;;;;;;181.40;37.75;;;;;;;;;;5073300;27;96195;-76
2022/01/18 23:12:43;;;;;;;179.98;36.13;;;;;;;;;;5073735;27;96101;-76
2022/01/18 23:15:10;;;;;;;193.15;33.83;;;;;;;;;;5073290;27;96257;-76
2022/01/18 23:17:37;;;;;;;182.73;36.70;;;;;;;;;;5077215;27;95335;-75
2022/01/18 23:20:05;;;;;;;200.07;38.42;;;;;;;;;;5071922;27;96448;-75
2022/01/18 23:22:31;;;;;;;178.15;41.80;;;;;;;;;;5070256;27;95123;-76
2022/01/18 23:24:57;;;;;;;194.80;41.97;;;;;;;;;;5060868;27;96908;-76
2022/01/18 23:27:24;;;;;;;230.85;45.83;;;;;;;;;;5072751;27;97410;-75
2022/01/18 23:29:51;;;;;;;190.80;43.58;;;;;;;;;;5073449;27;95094;-76
2022/01/18 23:32:18;;;;;;;160.30;40.20;;;;;;;;;;5073231;27;96814;-76
2022/01/18 23:34:44;;;;;;;160.07;39.47;;;;;;;;;;5065066;27;97329;-76
2022/01/18 23:37:13;;;;;;;159.73;38.53;;;;;;;;;;5067816;27;95374;-76
2022/01/18 23:39:45;;;;;;;192.13;41.05;;;;;;;;;;5075585;27;97093;-76
2022/01/18 23:42:20;;;;;;;194.63;42.97;;;;;;;;;;5052063;27;95236;-75
2022/01/18 23:44:53;;;;;;;184.40;39.38;;;;;;;;;;5052613;27;96145;-75
2022/01/18 23:47:22;;;;;;;160.68;35.30;;;;;;;;;;5065751;27;97183;-75
2022/01/18 23:49:52;;;;;;;240.30;44.97;;;;;;;;;;5071898;27;95388;-75
2022/01/18 23:52:19;;;;;;;194.70;41.22;;;;;;;;;;5073013;27;97494;-75
2022/01/18 23:54:46;;;;;;;273.95;44.17;;;;;;;;;;5072954;27;97549;-75
2022/01/18 23:57:15;;;;;;;229.00;41.53;;;;;;;;;;5073126;27;96619;-75
2022/01/18 23:59:47;;;;;;;214.18;42.53;;;;;;;;;;5073533;27;97104;-76
